Detall de PIREP

Printer-friendly versionPDF version

[2014/04/02 17:00:00]
Flight IATA:CT0003
Pilot Number:012
Company ICAO:CAT
Aircraft Type:A343/E
PAX:202
Departing Airport: LIEA
Destination Airport: LIRN
Alternate Airport:LIRA
Online: VATSIM
Route:KOLUS UM603 PNZ
Flight Level:F290
No Slew and time accel
No pause
Crash detect
Detect pilot in Cockpit between each 30 and 45 minutes
17:00 Zero fuel Weight: 314232 Lbs, Fuel Weight: 27669 Lbs
17:00 VATSIM:LIEA 021620Z 03007KT CAVOK 19/14 Q1010
17:00 VATSIM:LIRN 021620Z 25006KT 9999 FEW030 16/10 Q1015
17:02 Parking Brakes off
17:06 Take-off
17:06 Take off Weight: 340504 Lbs
17:06 Wind: 028º @ 006 Knots Heading: 204º
17:06 POS N40º 37´ 42´´ E008º 17´ 19´´
17:06 Flaps:3 at 192 Knots
17:06 Gear Up: 198 Knots
17:06 Flaps:2 at 194 Knots
17:06 Flaps:1 at 200 Knots
17:07 Flaps:0 at 232 Knots
17:15 TOC
17:15 Fuel Weight: 21067 Lb
17:21 Wind:257º@041 Knots Heading: 085º Ground Speed: 510 Knots Altitude 28950 ft
17:34 TOD
17:34 Fuel Weight: 15544 Lb
17:36 Wind:337º@007 Knots Heading: 092º Ground Speed: 411 Knots Altitude 25820 ft
17:51 Wind:083º@009 Knots Heading: 046º Ground Speed: 223 Knots Altitude 7020 ft
17:54 Flaps:1 at 209 Knots
17:55 Flaps:3 at 209 Knots
17:56 Gear Down: 190 Knots
17:56 Flaps:4 at 181 Knots
17:56 Flaps:5 at 167 Knots
18:02 TouchDown:Rate -93 ft/min Speed: 128 Knots
18:03 VATSIM:LIRN 021750Z 30004KT 270V350 9999 SCT070 15/09 Q1015
18:03 Land
18:03 Wind:211º@003 Knots
18:03 Heading: 234º
18:03 Flight Duration: 00:57
18:03 Landing Weight: 326718 Lbs
18:03 POS N40º 52´ 54´´ E014º 16´ 54´´
18:05 Parking brakes on
18:05 Block to Block Duration: 01:03
18:05 Final Fuel: 11876 Lbls
18:05 Spent Fuel: 15793 Lbls
18:05 Flight Length: 340 NM
18:05 TOD Land Length: 125 NM

Exportar CSV

Powered by Drupal - Modified by Danger4k